sensor_id;sensor_type;location;lat;lon;timestamp;pressure;altitude;pressure_sealevel;temperature;humidity
29247;BME280;16272;48.188;9.964;2023-04-19T00:02:01;96205.16;;;9.34;75.84
29247;BME280;16272;48.188;9.964;2023-04-19T00:04:27;96199.09;;;9.53;73.85
29247;BME280;16272;48.188;9.964;2023-04-19T00:06:52;96196.03;;;9.67;72.98
29247;BME280;16272;48.188;9.964;2023-04-19T00:09:17;96194.97;;;9.80;72.75
29247;BME280;16272;48.188;9.964;2023-04-19T00:11:43;96196.00;;;9.38;73.34
29247;BME280;16272;48.188;9.964;2023-04-19T00:14:08;96205.97;;;9.25;75.09
29247;BME280;16272;48.188;9.964;2023-04-19T00:16:36;96205.13;;;9.24;74.52
29247;BME280;16272;48.188;9.964;2023-04-19T00:19:01;96202.66;;;9.01;74.68
29247;BME280;16272;48.188;9.964;2023-04-19T00:21:34;96192.47;;;9.37;73.99
29247;BME280;16272;48.188;9.964;2023-04-19T00:24:01;96194.75;;;9.11;75.19
29247;BME280;16272;48.188;9.964;2023-04-19T00:26:27;96190.03;;;9.65;73.53
29247;BME280;16272;48.188;9.964;2023-04-19T00:28:52;96189.66;;;9.29;74.48
29247;BME280;16272;48.188;9.964;2023-04-19T00:31:18;96184.56;;;9.47;73.60
29247;BME280;16272;48.188;9.964;2023-04-19T00:33:44;96182.94;;;9.66;72.72
29247;BME280;16272;48.188;9.964;2023-04-19T00:36:09;96185.44;;;9.67;73.10
29247;BME280;16272;48.188;9.964;2023-04-19T00:38:35;96176.25;;;9.71;72.82
29247;BME280;16272;48.188;9.964;2023-04-19T00:41:06;96169.84;;;9.74;72.66
29247;BME280;16272;48.188;9.964;2023-04-19T00:43:32;96165.50;;;9.83;72.08
29247;BME280;16272;48.188;9.964;2023-04-19T00:45:57;96168.44;;;9.80;72.10
29247;BME280;16272;48.188;9.964;2023-04-19T00:48:23;96172.16;;;9.67;72.38
29247;BME280;16272;48.188;9.964;2023-04-19T00:50:49;96178.41;;;9.47;73.52
29247;BME280;16272;48.188;9.964;2023-04-19T00:53:15;96170.03;;;9.42;73.21
29247;BME280;16272;48.188;9.964;2023-04-19T00:55:41;96163.81;;;9.82;71.52
29247;BME280;16272;48.188;9.964;2023-04-19T00:58:07;96167.56;;;9.60;72.88
29247;BME280;16272;48.188;9.964;2023-04-19T01:00:37;96174.81;;;9.67;72.46
29247;BME280;16272;48.188;9.964;2023-04-19T01:03:03;96173.91;;;9.37;72.75
29247;BME280;16272;48.188;9.964;2023-04-19T01:05:31;96172.84;;;9.50;72.65
29247;BME280;16272;48.188;9.964;2023-04-19T01:07:56;96171.63;;;9.73;72.03
29247;BME280;16272;48.188;9.964;2023-04-19T01:10:22;96172.97;;;9.38;73.53
29247;BME280;16272;48.188;9.964;2023-04-19T01:12:49;96166.69;;;9.49;73.23
29247;BME280;16272;48.188;9.964;2023-04-19T01:15:14;96158.38;;;9.73;72.08
29247;BME280;16272;48.188;9.964;2023-04-19T01:17:40;96155.94;;;9.51;72.81
29247;BME280;16272;48.188;9.964;2023-04-19T01:20:06;96161.06;;;9.23;74.59
29247;BME280;16272;48.188;9.964;2023-04-19T01:22:32;96159.09;;;9.25;74.23
29247;BME280;16272;48.188;9.964;2023-04-19T01:24:57;96157.75;;;9.41;73.26
29247;BME280;16272;48.188;9.964;2023-04-19T01:27:23;96154.81;;;9.34;73.80
29247;BME280;16272;48.188;9.964;2023-04-19T01:29:48;96149.88;;;9.19;73.61
29247;BME280;16272;48.188;9.964;2023-04-19T01:32:14;96153.72;;;9.46;73.19
29247;BME280;16272;48.188;9.964;2023-04-19T01:34:39;96144.22;;;9.44;73.11
29247;BME280;16272;48.188;9.964;2023-04-19T01:37:07;96147.91;;;9.12;74.46
29247;BME280;16272;48.188;9.964;2023-04-19T01:39:35;96146.19;;;9.01;75.20
29247;BME280;16272;48.188;9.964;2023-04-19T01:42:01;96148.75;;;9.12;74.23
29247;BME280;16272;48.188;9.964;2023-04-19T01:44:27;96146.31;;;9.40;74.02
29247;BME280;16272;48.188;9.964;2023-04-19T01:46:53;96137.63;;;9.28;73.69
29247;BME280;16272;48.188;9.964;2023-04-19T01:49:19;96133.47;;;9.45;73.33
29247;BME280;16272;48.188;9.964;2023-04-19T01:51:44;96133.13;;;9.19;74.44
29247;BME280;16272;48.188;9.964;2023-04-19T01:54:09;96125.50;;;9.35;73.69
29247;BME280;16272;48.188;9.964;2023-04-19T01:56:35;96124.59;;;9.56;72.50
29247;BME280;16272;48.188;9.964;2023-04-19T01:59:00;96123.47;;;9.59;73.16
29247;BME280;16272;48.188;9.964;2023-04-19T02:01:25;96133.94;;;9.10;74.09
29247;BME280;16272;48.188;9.964;2023-04-19T02:03:51;96127.31;;;9.25;74.41
29247;BME280;16272;48.188;9.964;2023-04-19T02:06:17;96119.56;;;9.53;72.82
29247;BME280;16272;48.188;9.964;2023-04-19T02:08:42;96119.88;;;9.19;73.79
29247;BME280;16272;48.188;9.964;2023-04-19T02:11:09;96120.84;;;9.18;74.15
29247;BME280;16272;48.188;9.964;2023-04-19T02:13:35;96119.66;;;8.91;75.26
29247;BME280;16272;48.188;9.964;2023-04-19T02:16:01;96111.03;;;9.40;73.42
29247;BME280;16272;48.188;9.964;2023-04-19T02:18:27;96116.31;;;9.40;73.62
29247;BME280;16272;48.188;9.964;2023-04-19T02:20:56;96115.34;;;9.41;73.68
29247;BME280;16272;48.188;9.964;2023-04-19T02:23:31;96118.97;;;9.40;73.71
29247;BME280;16272;48.188;9.964;2023-04-19T02:25:57;96104.88;;;9.49;72.92
29247;BME280;16272;48.188;9.964;2023-04-19T02:28:22;96112.50;;;9.23;73.91
29247;BME280;16272;48.188;9.964;2023-04-19T02:30:52;96110.53;;;9.25;73.55
29247;BME280;16272;48.188;9.964;2023-04-19T02:33:17;96111.44;;;9.35;72.82
29247;BME280;16272;48.188;9.964;2023-04-19T02:35:43;96104.91;;;9.59;72.18
29247;BME280;16272;48.188;9.964;2023-04-19T02:38:08;96099.00;;;9.35;73.15
29247;BME280;16272;48.188;9.964;2023-04-19T02:40:33;96104.13;;;9.17;73.96
29247;BME280;16272;48.188;9.964;2023-04-19T02:42:59;96099.38;;;9.21;74.23
29247;BME280;16272;48.188;9.964;2023-04-19T02:45:24;96099.97;;;9.34;73.71
29247;BME280;16272;48.188;9.964;2023-04-19T02:47:50;96095.38;;;9.27;73.92
29247;BME280;16272;48.188;9.964;2023-04-19T02:50:15;96091.31;;;9.23;73.93
29247;BME280;16272;48.188;9.964;2023-04-19T02:52:41;96085.72;;;8.75;75.73
29247;BME280;16272;48.188;9.964;2023-04-19T02:55:08;96083.50;;;9.31;74.05
29247;BME280;16272;48.188;9.964;2023-04-19T02:57:34;96090.09;;;9.36;73.08
29247;BME280;16272;48.188;9.964;2023-04-19T03:00:01;96083.53;;;9.41;73.01
29247;BME280;16272;48.188;9.964;2023-04-19T03:02:29;96090.47;;;9.22;73.67
29247;BME280;16272;48.188;9.964;2023-04-19T03:04:54;96076.41;;;9.41;72.71
29247;BME280;16272;48.188;9.964;2023-04-19T03:07:31;96090.75;;;9.19;73.78
29247;BME280;16272;48.188;9.964;2023-04-19T03:09:56;96074.31;;;9.35;73.45
29247;BME280;16272;48.188;9.964;2023-04-19T03:12:27;96094.50;;;9.26;73.61
29247;BME280;16272;48.188;9.964;2023-04-19T03:14:52;96071.22;;;9.20;73.95
29247;BME280;16272;48.188;9.964;2023-04-19T03:17:24;96078.19;;;9.21;73.79
29247;BME280;16272;48.188;9.964;2023-04-19T03:19:53;96079.59;;;9.25;73.96
29247;BME280;16272;48.188;9.964;2023-04-19T03:22:24;96081.94;;;9.09;74.65
29247;BME280;16272;48.188;9.964;2023-04-19T03:24:49;96073.16;;;9.18;73.74
29247;BME280;16272;48.188;9.964;2023-04-19T03:27:15;96076.56;;;9.40;73.72
29247;BME280;16272;48.188;9.964;2023-04-19T03:29:40;96063.44;;;9.38;73.40
29247;BME280;16272;48.188;9.964;2023-04-19T03:32:06;96072.22;;;9.38;73.06
29247;BME280;16272;48.188;9.964;2023-04-19T03:34:31;96075.38;;;9.13;74.70
29247;BME280;16272;48.188;9.964;2023-04-19T03:36:56;96064.78;;;9.13;73.89
29247;BME280;16272;48.188;9.964;2023-04-19T03:39:22;96065.78;;;9.12;74.28
29247;BME280;16272;48.188;9.964;2023-04-19T03:41:47;96067.25;;;9.05;74.24
29247;BME280;16272;48.188;9.964;2023-04-19T03:44:15;96049.44;;;9.26;73.08
29247;BME280;16272;48.188;9.964;2023-04-19T03:46:41;96064.19;;;8.99;74.03
29247;BME280;16272;48.188;9.964;2023-04-19T03:49:06;96059.63;;;9.21;73.43
29247;BME280;16272;48.188;9.964;2023-04-19T03:51:33;96056.44;;;9.27;73.54
29247;BME280;16272;48.188;9.964;2023-04-19T03:54:00;96068.25;;;9.04;74.49
29247;BME280;16272;48.188;9.964;2023-04-19T03:56:26;96052.81;;;9.28;74.27
29247;BME280;16272;48.188;9.964;2023-04-19T03:58:51;96050.19;;;9.28;73.30
29247;BME280;16272;48.188;9.964;2023-04-19T04:01:20;96046.66;;;9.28;73.23
29247;BME280;16272;48.188;9.964;2023-04-19T04:03:46;96051.94;;;9.18;74.00
29247;BME280;16272;48.188;9.964;2023-04-19T04:06:14;96055.03;;;9.33;73.05
29247;BME280;16272;48.188;9.964;2023-04-19T04:08:39;96060.47;;;8.71;74.67
29247;BME280;16272;48.188;9.964;2023-04-19T04:11:05;96067.59;;;9.21;73.62
29247;BME280;16272;48.188;9.964;2023-04-19T04:13:30;96057.44;;;9.46;72.64
29247;BME280;16272;48.188;9.964;2023-04-19T04:16:02;96057.72;;;9.52;71.79
29247;BME280;16272;48.188;9.964;2023-04-19T04:18:27;96064.19;;;8.99;74.23
29247;BME280;16272;48.188;9.964;2023-04-19T04:20:53;96054.75;;;9.26;72.98
29247;BME280;16272;48.188;9.964;2023-04-19T04:23:18;96063.34;;;8.99;74.34
29247;BME280;16272;48.188;9.964;2023-04-19T04:25:45;96061.69;;;9.08;73.74
29247;BME280;16272;48.188;9.964;2023-04-19T04:28:12;96064.69;;;8.83;74.61
29247;BME280;16272;48.188;9.964;2023-04-19T04:30:38;96063.03;;;8.82;75.40
29247;BME280;16272;48.188;9.964;2023-04-19T04:33:04;96063.50;;;8.97;74.42
29247;BME280;16272;48.188;9.964;2023-04-19T04:35:30;96058.66;;;9.22;73.92
29247;BME280;16272;48.188;9.964;2023-04-19T04:37:55;96060.06;;;9.26;73.41
29247;BME280;16272;48.188;9.964;2023-04-19T04:40:22;96060.91;;;9.17;74.22
29247;BME280;16272;48.188;9.964;2023-04-19T04:42:48;96064.25;;;9.19;73.43
29247;BME280;16272;48.188;9.964;2023-04-19T04:45:13;96065.31;;;9.07;74.08
29247;BME280;16272;48.188;9.964;2023-04-19T04:47:42;96061.66;;;8.88;74.62
29247;BME280;16272;48.188;9.964;2023-04-19T04:50:08;96075.59;;;8.90;75.03
29247;BME280;16272;48.188;9.964;2023-04-19T04:52:33;96060.03;;;9.16;74.26
29247;BME280;16272;48.188;9.964;2023-04-19T04:55:05;96071.72;;;8.94;74.58
29247;BME280;16272;48.188;9.964;2023-04-19T04:57:31;96069.75;;;8.96;74.64
29247;BME280;16272;48.188;9.964;2023-04-19T04:59:56;96066.19;;;9.17;74.08
29247;BME280;16272;48.188;9.964;2023-04-19T05:02:22;96073.72;;;9.12;74.42
29247;BME280;16272;48.188;9.964;2023-04-19T05:04:48;96063.69;;;9.15;73.85
29247;BME280;16272;48.188;9.964;2023-04-19T05:07:13;96068.44;;;9.22;73.67
29247;BME280;16272;48.188;9.964;2023-04-19T05:09:39;96068.28;;;9.13;74.38
29247;BME280;16272;48.188;9.964;2023-04-19T05:12:04;96073.00;;;9.10;73.90
29247;BME280;16272;48.188;9.964;2023-04-19T05:14:30;96067.03;;;9.27;74.05
29247;BME280;16272;48.188;9.964;2023-04-19T05:16:57;96073.25;;;9.07;74.31
29247;BME280;16272;48.188;9.964;2023-04-19T05:19:22;96073.59;;;9.23;73.99
29247;BME280;16272;48.188;9.964;2023-04-19T05:21:48;96067.06;;;9.47;73.21
29247;BME280;16272;48.188;9.964;2023-04-19T05:24:13;96068.44;;;9.41;73.29
29247;BME280;16272;48.188;9.964;2023-04-19T05:26:38;96068.44;;;9.41;73.69
29247;BME280;16272;48.188;9.964;2023-04-19T05:29:06;96062.84;;;9.34;73.64
29247;BME280;16272;48.188;9.964;2023-04-19T05:31:31;96067.06;;;9.47;72.72
29247;BME280;16272;48.188;9.964;2023-04-19T05:33:56;96066.53;;;9.53;72.51
29247;BME280;16272;48.188;9.964;2023-04-19T05:36:22;96067.09;;;9.66;72.65
29247;BME280;16272;48.188;9.964;2023-04-19T05:38:48;96064.56;;;9.94;71.12
29247;BME280;16272;48.188;9.964;2023-04-19T05:41:14;96069.47;;;9.69;71.94
29247;BME280;16272;48.188;9.964;2023-04-19T05:43:39;96069.03;;;9.64;72.29
29247;BME280;16272;48.188;9.964;2023-04-19T05:46:05;96067.50;;;9.52;72.24
29247;BME280;16272;48.188;9.964;2023-04-19T05:48:30;96072.38;;;9.47;72.94
29247;BME280;16272;48.188;9.964;2023-04-19T05:50:55;96074.06;;;9.57;72.09
29247;BME280;16272;48.188;9.964;2023-04-19T05:53:22;96069.84;;;9.35;72.66
29247;BME280;16272;48.188;9.964;2023-04-19T05:55:51;96076.53;;;9.49;72.77
29247;BME280;16272;48.188;9.964;2023-04-19T05:58:17;96080.44;;;8.85;74.47
29247;BME280;16272;48.188;9.964;2023-04-19T06:00:45;96077.19;;;9.12;74.25
29247;BME280;16272;48.188;9.964;2023-04-19T06:03:10;96071.53;;;9.36;73.24
29247;BME280;16272;48.188;9.964;2023-04-19T06:05:45;96081.59;;;9.62;71.59
29247;BME280;16272;48.188;9.964;2023-04-19T06:08:10;96074.91;;;9.68;71.30
29247;BME280;16272;48.188;9.964;2023-04-19T06:10:36;96077.28;;;9.61;72.27
29247;BME280;16272;48.188;9.964;2023-04-19T06:13:02;96078.72;;;9.15;73.76
29247;BME280;16272;48.188;9.964;2023-04-19T06:15:35;96078.06;;;9.32;73.29
29247;BME280;16272;48.188;9.964;2023-04-19T06:18:02;96076.41;;;9.51;72.20
29247;BME280;16272;48.188;9.964;2023-04-19T06:20:27;96075.97;;;9.26;72.70
29247;BME280;16272;48.188;9.964;2023-04-19T06:22:53;96088.72;;;9.01;75.51
29247;BME280;16272;48.188;9.964;2023-04-19T06:25:18;96083.38;;;9.32;74.02
29247;BME280;16272;48.188;9.964;2023-04-19T06:27:43;96078.78;;;9.54;72.80
29247;BME280;16272;48.188;9.964;2023-04-19T06:30:09;96080.19;;;9.38;72.85
29247;BME280;16272;48.188;9.964;2023-04-19T06:32:34;96080.31;;;9.47;72.64
29247;BME280;16272;48.188;9.964;2023-04-19T06:35:00;96088.44;;;9.55;72.14
29247;BME280;16272;48.188;9.964;2023-04-19T06:37:25;96083.78;;;9.37;73.10
29247;BME280;16272;48.188;9.964;2023-04-19T06:39:50;96083.13;;;9.74;71.90
29247;BME280;16272;48.188;9.964;2023-04-19T06:42:15;96086.59;;;9.46;71.82
29247;BME280;16272;48.188;9.964;2023-04-19T06:44:43;96079.66;;;9.64;72.18
29247;BME280;16272;48.188;9.964;2023-04-19T06:47:09;96078.78;;;9.54;72.88
29247;BME280;16272;48.188;9.964;2023-04-19T06:49:36;96089.00;;;9.88;71.46
29247;BME280;16272;48.188;9.964;2023-04-19T06:52:01;96083.81;;;9.96;70.98
29247;BME280;16272;48.188;9.964;2023-04-19T06:54:27;96084.91;;;10.13;70.89
29247;BME280;16272;48.188;9.964;2023-04-19T06:56:52;96078.94;;;10.01;70.67
29247;BME280;16272;48.188;9.964;2023-04-19T06:59:23;96089.25;;;10.04;70.80
29247;BME280;16272;48.188;9.964;2023-04-19T07:01:52;96087.16;;;9.59;72.36
29247;BME280;16272;48.188;9.964;2023-04-19T07:04:18;96089.00;;;9.68;71.13
29247;BME280;16272;48.188;9.964;2023-04-19T07:06:47;96083.28;;;9.73;70.85
29247;BME280;16272;48.188;9.964;2023-04-19T07:09:14;96084.38;;;9.90;71.03
29247;BME280;16272;48.188;9.964;2023-04-19T07:11:46;96079.94;;;9.81;70.55
29247;BME280;16272;48.188;9.964;2023-04-19T07:14:12;96084.19;;;9.33;72.48
29247;BME280;16272;48.188;9.964;2023-04-19T07:16:37;96083.41;;;9.52;71.77
29247;BME280;16272;48.188;9.964;2023-04-19T07:19:03;96082.84;;;9.68;72.16
29247;BME280;16272;48.188;9.964;2023-04-19T07:21:28;96085.50;;;9.97;70.82
29247;BME280;16272;48.188;9.964;2023-04-19T07:23:57;96084.38;;;9.90;71.07
29247;BME280;16272;48.188;9.964;2023-04-19T07:26:29;96076.97;;;10.03;70.98
29247;BME280;16272;48.188;9.964;2023-04-19T07:28:54;96087.72;;;9.53;72.19
29247;BME280;16272;48.188;9.964;2023-04-19T07:31:27;96081.56;;;9.43;72.40
29247;BME280;16272;48.188;9.964;2023-04-19T07:33:53;96083.81;;;9.57;72.43
29247;BME280;16272;48.188;9.964;2023-04-19T07:36:24;96071.56;;;9.56;72.88
29247;BME280;16272;48.188;9.964;2023-04-19T07:38:50;96084.97;;;9.64;72.76
29247;BME280;16272;48.188;9.964;2023-04-19T07:41:17;96078.38;;;10.07;70.83
29247;BME280;16272;48.188;9.964;2023-04-19T07:43:42;96090.72;;;9.09;73.21
29247;BME280;16272;48.188;9.964;2023-04-19T07:46:09;96081.56;;;9.43;72.24
29247;BME280;16272;48.188;9.964;2023-04-19T07:48:43;96079.06;;;9.90;71.34
29247;BME280;16272;48.188;9.964;2023-04-19T07:51:15;96080.31;;;10.25;70.41
29247;BME280;16272;48.188;9.964;2023-04-19T07:53:45;96085.47;;;10.26;69.86
29247;BME280;16272;48.188;9.964;2023-04-19T07:56:10;96081.03;;;9.78;71.17
29247;BME280;16272;48.188;9.964;2023-04-19T07:58:37;96080.34;;;10.05;70.93
29247;BME280;16272;48.188;9.964;2023-04-19T08:01:03;96080.16;;;10.36;69.78
29247;BME280;16272;48.188;9.964;2023-04-19T08:03:35;96070.69;;;10.14;69.77
29247;BME280;16272;48.188;9.964;2023-04-19T08:06:02;96079.34;;;9.87;71.35
29247;BME280;16272;48.188;9.964;2023-04-19T08:08:29;96073.91;;;9.59;71.17
29247;BME280;16272;48.188;9.964;2023-04-19T08:10:54;96078.06;;;9.32;71.52
29247;BME280;16272;48.188;9.964;2023-04-19T08:13:20;96068.69;;;10.26;70.21
29247;BME280;16272;48.188;9.964;2023-04-19T08:15:45;96059.53;;;9.91;70.35
29247;BME280;16272;48.188;9.964;2023-04-19T08:18:10;96059.81;;;9.68;70.52
29247;BME280;16272;48.188;9.964;2023-04-19T08:20:36;96066.44;;;10.41;69.13
29247;BME280;16272;48.188;9.964;2023-04-19T08:23:01;96056.09;;;10.47;69.17
29247;BME280;16272;48.188;9.964;2023-04-19T08:25:27;96056.91;;;10.58;68.17
29247;BME280;16272;48.188;9.964;2023-04-19T08:27:56;96059.63;;;10.19;69.14
29247;BME280;16272;48.188;9.964;2023-04-19T08:30:23;96068.19;;;9.73;71.42
29247;BME280;16272;48.188;9.964;2023-04-19T08:32:49;96058.94;;;10.17;70.92
29247;BME280;16272;48.188;9.964;2023-04-19T08:35:15;96052.75;;;10.26;69.33
29247;BME280;16272;48.188;9.964;2023-04-19T08:37:40;96049.41;;;10.81;67.96
29247;BME280;16272;48.188;9.964;2023-04-19T08:40:06;96052.88;;;10.44;71.70
29247;BME280;16272;48.188;9.964;2023-04-19T08:42:32;96054.94;;;10.60;69.28
29247;BME280;16272;48.188;9.964;2023-04-19T08:45:00;96043.63;;;11.13;68.11
29247;BME280;16272;48.188;9.964;2023-04-19T08:47:27;96053.47;;;11.03;67.30
29247;BME280;16272;48.188;9.964;2023-04-19T08:49:54;96053.13;;;10.88;66.77
29247;BME280;16272;48.188;9.964;2023-04-19T08:52:22;96048.88;;;10.77;66.83
29247;BME280;16272;48.188;9.964;2023-04-19T08:54:48;96045.84;;;11.18;67.89
29247;BME280;16272;48.188;9.964;2023-04-19T08:57:14;96050.50;;;10.31;69.69
29247;BME280;16272;48.188;9.964;2023-04-19T08:59:39;96043.75;;;10.66;69.12
29247;BME280;16272;48.188;9.964;2023-04-19T09:02:04;96047.28;;;10.84;68.30
29247;BME280;16272;48.188;9.964;2023-04-19T09:04:32;96031.88;;;11.16;67.23
29247;BME280;16272;48.188;9.964;2023-04-19T09:06:57;96034.56;;;11.06;67.29
29247;BME280;16272;48.188;9.964;2023-04-19T09:09:26;96035.72;;;11.03;67.26
29247;BME280;16272;48.188;9.964;2023-04-19T09:11:51;96039.88;;;11.34;66.07
29247;BME280;16272;48.188;9.964;2023-04-19T09:14:18;96031.41;;;11.20;65.44
29247;BME280;16272;48.188;9.964;2023-04-19T09:16:44;96033.94;;;11.22;65.44
29247;BME280;16272;48.188;9.964;2023-04-19T09:19:10;96035.84;;;11.30;65.47
29247;BME280;16272;48.188;9.964;2023-04-19T09:21:37;96037.53;;;11.03;65.66
29247;BME280;16272;48.188;9.964;2023-04-19T09:24:02;96031.16;;;10.96;65.98
29247;BME280;16272;48.188;9.964;2023-04-19T09:26:28;96027.56;;;10.87;66.90
29247;BME280;16272;48.188;9.964;2023-04-19T09:28:58;96018.66;;;11.42;65.79
29247;BME280;16272;48.188;9.964;2023-04-19T09:31:25;96017.63;;;11.71;64.55
29247;BME280;16272;48.188;9.964;2023-04-19T09:33:51;96014.66;;;11.38;64.53
29247;BME280;16272;48.188;9.964;2023-04-19T09:36:32;96021.88;;;11.00;65.66
29247;BME280;16272;48.188;9.964;2023-04-19T09:38:58;96012.78;;;11.02;65.17
29247;BME280;16272;48.188;9.964;2023-04-19T09:41:25;96020.13;;;10.91;67.08
29247;BME280;16272;48.188;9.964;2023-04-19T09:43:51;96010.63;;;11.34;65.10
29247;BME280;16272;48.188;9.964;2023-04-19T09:46:33;96001.03;;;11.41;65.55
29247;BME280;16272;48.188;9.964;2023-04-19T09:49:18;96001.66;;;11.71;64.84
29247;BME280;16272;48.188;9.964;2023-04-19T09:51:52;96000.50;;;11.37;65.37
29247;BME280;16272;48.188;9.964;2023-04-19T09:54:20;96005.97;;;10.90;66.80
29247;BME280;16272;48.188;9.964;2023-04-19T09:56:46;96001.16;;;10.85;66.66
29247;BME280;16272;48.188;9.964;2023-04-19T09:59:12;95996.94;;;11.11;67.23
29247;BME280;16272;48.188;9.964;2023-04-19T10:01:46;95994.47;;;11.89;65.38
29247;BME280;16272;48.188;9.964;2023-04-19T10:04:14;95990.47;;;12.11;63.34
29247;BME280;16272;48.188;9.964;2023-04-19T10:06:51;95981.34;;;12.40;63.11
29247;BME280;16272;48.188;9.964;2023-04-19T10:09:18;95974.84;;;12.43;61.77
29247;BME280;16272;48.188;9.964;2023-04-19T10:11:51;95980.75;;;12.97;63.03
29247;BME280;16272;48.188;9.964;2023-04-19T10:14:23;95975.56;;;12.87;60.12
29247;BME280;16272;48.188;9.964;2023-04-19T10:16:50;95981.34;;;12.40;61.64
29247;BME280;16272;48.188;9.964;2023-04-19T10:19:18;95966.09;;;13.01;59.95
29247;BME280;16272;48.188;9.964;2023-04-19T10:21:46;95972.56;;;13.74;61.06
29247;BME280;16272;48.188;9.964;2023-04-19T10:24:18;95962.84;;;14.06;59.62
29247;BME280;16272;48.188;9.964;2023-04-19T10:29:54;95958.19;;;13.92;57.99
29247;BME280;16272;48.188;9.964;2023-04-19T10:32:20;95956.38;;;13.76;56.47
29247;BME280;16272;48.188;9.964;2023-04-19T10:34:45;95957.66;;;14.13;58.36
29247;BME280;16272;48.188;9.964;2023-04-19T10:37:21;95952.81;;;14.08;55.79
29247;BME280;16272;48.188;9.964;2023-04-19T10:39:47;95956.53;;;13.91;56.86
29247;BME280;16272;48.188;9.964;2023-04-19T10:42:20;95945.38;;;13.79;60.12
29247;BME280;16272;48.188;9.964;2023-04-19T10:47:50;95946.06;;;12.89;59.52
29247;BME280;16272;48.188;9.964;2023-04-19T10:50:22;95944.28;;;12.55;63.74
29247;BME280;16272;48.188;9.964;2023-04-19T10:52:48;95940.19;;;12.77;62.26
29247;BME280;16272;48.188;9.964;2023-04-19T10:55:17;95938.22;;;12.79;64.09
29247;BME280;16272;48.188;9.964;2023-04-19T10:58:07;95934.03;;;12.77;61.99
29247;BME280;16272;48.188;9.964;2023-04-19T11:00:32;95928.28;;;13.22;62.25
29247;BME280;16272;48.188;9.964;2023-04-19T11:06:18;95919.81;;;13.27;61.43
29247;BME280;16272;48.188;9.964;2023-04-19T11:08:47;95919.53;;;13.47;60.22
29247;BME280;16272;48.188;9.964;2023-04-19T11:11:12;95911.84;;;13.52;59.98
29247;BME280;16272;48.188;9.964;2023-04-19T11:13:59;95921.84;;;13.58;58.57
29247;BME280;16272;48.188;9.964;2023-04-19T11:16:26;95908.25;;;14.09;59.62
29247;BME280;16272;48.188;9.964;2023-04-19T11:18:52;95899.97;;;14.43;59.54
29247;BME280;16272;48.188;9.964;2023-04-19T11:21:18;95897.53;;;15.89;57.20
29247;BME280;16272;48.188;9.964;2023-04-19T11:23:44;95880.34;;;16.72;54.04
29247;BME280;16272;48.188;9.964;2023-04-19T11:26:12;95879.28;;;17.25;53.15
29247;BME280;16272;48.188;9.964;2023-04-19T11:28:38;95875.06;;;16.79;51.25
29247;BME280;16272;48.188;9.964;2023-04-19T11:31:07;95884.38;;;15.41;54.17
29247;BME280;16272;48.188;9.964;2023-04-19T11:33:33;95879.16;;;14.70;54.90
29247;BME280;16272;48.188;9.964;2023-04-19T11:35:59;95879.69;;;14.18;55.26
29247;BME280;16272;48.188;9.964;2023-04-19T11:38:28;95875.88;;;14.51;54.92
29247;BME280;16272;48.188;9.964;2023-04-19T11:41:00;95875.38;;;14.08;55.21
29247;BME280;16272;48.188;9.964;2023-04-19T11:43:33;95872.81;;;13.51;58.82
29247;BME280;16272;48.188;9.964;2023-04-19T11:46:08;95876.13;;;13.20;59.12
29247;BME280;16272;48.188;9.964;2023-04-19T11:48:33;95868.63;;;13.73;57.98
29247;BME280;16272;48.188;9.964;2023-04-19T11:51:02;95871.03;;;14.15;57.28
29247;BME280;16272;48.188;9.964;2023-04-19T11:53:30;95861.09;;;14.32;56.17
29247;BME280;16272;48.188;9.964;2023-04-19T11:56:06;95870.19;;;14.15;56.47
29247;BME280;16272;48.188;9.964;2023-04-19T11:58:45;95861.44;;;13.82;57.96
29247;BME280;16272;48.188;9.964;2023-04-19T12:01:20;95855.63;;;14.57;54.83
29247;BME280;16272;48.188;9.964;2023-04-19T12:03:53;95853.16;;;13.35;56.04
29247;BME280;16272;48.188;9.964;2023-04-19T12:06:28;95855.13;;;13.17;57.89
29247;BME280;16272;48.188;9.964;2023-04-19T12:08:56;95841.50;;;13.45;57.72
29247;BME280;16272;48.188;9.964;2023-04-19T12:11:23;95848.13;;;13.65;57.24
29247;BME280;16272;48.188;9.964;2023-04-19T12:14:13;95851.47;;;13.34;57.25
29247;BME280;16272;48.188;9.964;2023-04-19T12:16:38;95843.97;;;13.63;58.00
29247;BME280;16272;48.188;9.964;2023-04-19T12:19:16;95843.78;;;13.56;55.92
29247;BME280;16272;48.188;9.964;2023-04-19T12:21:42;95836.50;;;13.33;57.96
29247;BME280;16272;48.188;9.964;2023-04-19T12:24:10;95834.66;;;13.34;58.59
29247;BME280;16272;48.188;9.964;2023-04-19T12:26:51;95833.09;;;13.06;57.97
29247;BME280;16272;48.188;9.964;2023-04-19T12:29:25;95842.78;;;13.16;57.86
29247;BME280;16272;48.188;9.964;2023-04-19T12:31:51;95831.13;;;12.92;58.93
29247;BME280;16272;48.188;9.964;2023-04-19T12:34:16;95839.13;;;13.00;59.66
29247;BME280;16272;48.188;9.964;2023-04-19T12:36:41;95847.94;;;12.93;58.81
29247;BME280;16272;48.188;9.964;2023-04-19T12:39:06;95842.06;;;12.56;60.64
29247;BME280;16272;48.188;9.964;2023-04-19T12:41:32;95838.94;;;12.26;61.59
29247;BME280;16272;48.188;9.964;2023-04-19T12:43:58;95842.03;;;12.48;60.72
29247;BME280;16272;48.188;9.964;2023-04-19T12:46:23;95837.22;;;12.01;60.80
29247;BME280;16272;48.188;9.964;2023-04-19T12:48:55;95832.97;;;12.24;61.66
29247;BME280;16272;48.188;9.964;2023-04-19T12:51:21;95823.09;;;12.59;61.54
29247;BME280;16272;48.188;9.964;2023-04-19T12:53:47;95820.25;;;12.10;60.98
29247;BME280;16272;48.188;9.964;2023-04-19T12:56:13;95826.41;;;12.02;62.17
29247;BME280;16272;48.188;9.964;2023-04-19T12:58:39;95832.50;;;11.94;63.21
29247;BME280;16272;48.188;9.964;2023-04-19T13:01:05;95826.56;;;12.01;63.49
29247;BME280;16272;48.188;9.964;2023-04-19T13:03:30;95837.00;;;11.68;64.52
29247;BME280;16272;48.188;9.964;2023-04-19T13:05:59;95837.13;;;11.58;64.83
29247;BME280;16272;48.188;9.964;2023-04-19T13:08:25;95825.25;;;12.13;62.01
29247;BME280;16272;48.188;9.964;2023-04-19T13:10:59;95835.59;;;11.55;63.93
29247;BME280;16272;48.188;9.964;2023-04-19T13:13:24;95831.81;;;11.14;65.15
29247;BME280;16272;48.188;9.964;2023-04-19T13:15:50;95832.03;;;11.20;65.32
29247;BME280;16272;48.188;9.964;2023-04-19T13:18:16;95830.53;;;11.00;66.48